sensor_id;sensor_type;location;lat;lon;timestamp;temperature;humidity
57026;DHT22;43961;52.940;6.834;2023-12-20T00:00:53;4.50;99.90
57026;DHT22;43961;52.940;6.834;2023-12-20T00:03:19;4.50;99.90
57026;DHT22;43961;52.940;6.834;2023-12-20T00:05:45;4.60;99.90
57026;DHT22;43961;52.940;6.834;2023-12-20T00:08:11;4.60;99.90
57026;DHT22;43961;52.940;6.834;2023-12-20T00:10:37;4.70;99.90
57026;DHT22;43961;52.940;6.834;2023-12-20T00:13:02;4.70;99.90
57026;DHT22;43961;52.940;6.834;2023-12-20T00:15:28;4.70;99.90
57026;DHT22;43961;52.940;6.834;2023-12-20T00:17:53;4.80;99.90
57026;DHT22;43961;52.940;6.834;2023-12-20T00:20:19;4.80;99.90
57026;DHT22;43961;52.940;6.834;2023-12-20T00:22:45;4.80;99.90
57026;DHT22;43961;52.940;6.834;2023-12-20T00:25:10;4.80;99.90
57026;DHT22;43961;52.940;6.834;2023-12-20T00:27:36;4.70;99.90
57026;DHT22;43961;52.940;6.834;2023-12-20T00:30:01;4.70;99.90
57026;DHT22;43961;52.940;6.834;2023-12-20T00:32:27;4.70;99.90
57026;DHT22;43961;52.940;6.834;2023-12-20T00:34:53;4.70;99.90
57026;DHT22;43961;52.940;6.834;2023-12-20T00:37:18;4.70;99.90
57026;DHT22;43961;52.940;6.834;2023-12-20T00:39:44;4.70;99.90
57026;DHT22;43961;52.940;6.834;2023-12-20T00:42:09;4.60;99.90
57026;DHT22;43961;52.940;6.834;2023-12-20T00:44:35;4.60;99.90
57026;DHT22;43961;52.940;6.834;2023-12-20T00:47:01;4.60;99.90
57026;DHT22;43961;52.940;6.834;2023-12-20T00:49:26;4.60;99.90
57026;DHT22;43961;52.940;6.834;2023-12-20T00:51:52;4.60;99.90
57026;DHT22;43961;52.940;6.834;2023-12-20T00:54:18;4.60;99.90
57026;DHT22;43961;52.940;6.834;2023-12-20T00:56:44;4.60;99.90
57026;DHT22;43961;52.940;6.834;2023-12-20T00:59:09;4.50;99.90
57026;DHT22;43961;52.940;6.834;2023-12-20T01:01:35;4.50;99.90
57026;DHT22;43961;52.940;6.834;2023-12-20T01:04:00;4.50;99.90
57026;DHT22;43961;52.940;6.834;2023-12-20T01:06:26;4.50;99.90
57026;DHT22;43961;52.940;6.834;2023-12-20T01:08:51;4.50;99.90
57026;DHT22;43961;52.940;6.834;2023-12-20T01:11:17;4.40;99.90
57026;DHT22;43961;52.940;6.834;2023-12-20T01:13:42;4.50;99.90
57026;DHT22;43961;52.940;6.834;2023-12-20T01:16:11;4.50;99.90
57026;DHT22;43961;52.940;6.834;2023-12-20T01:18:37;4.50;99.90
57026;DHT22;43961;52.940;6.834;2023-12-20T01:21:04;4.50;99.90
57026;DHT22;43961;52.940;6.834;2023-12-20T01:23:30;4.60;99.90
57026;DHT22;43961;52.940;6.834;2023-12-20T01:25:56;4.60;99.90
57026;DHT22;43961;52.940;6.834;2023-12-20T01:28:21;4.60;99.90
57026;DHT22;43961;52.940;6.834;2023-12-20T01:30:47;4.60;99.90
57026;DHT22;43961;52.940;6.834;2023-12-20T01:33:13;4.70;99.90
57026;DHT22;43961;52.940;6.834;2023-12-20T01:35:39;4.70;99.90
57026;DHT22;43961;52.940;6.834;2023-12-20T01:38:04;4.70;99.90
57026;DHT22;43961;52.940;6.834;2023-12-20T01:40:30;4.70;99.90
57026;DHT22;43961;52.940;6.834;2023-12-20T01:43:06;4.70;99.90
57026;DHT22;43961;52.940;6.834;2023-12-20T01:45:32;4.70;99.90
57026;DHT22;43961;52.940;6.834;2023-12-20T01:47:58;4.70;99.90
57026;DHT22;43961;52.940;6.834;2023-12-20T01:50:24;4.80;99.90
57026;DHT22;43961;52.940;6.834;2023-12-20T01:52:50;4.80;99.90
57026;DHT22;43961;52.940;6.834;2023-12-20T01:55:19;4.80;99.90
57026;DHT22;43961;52.940;6.834;2023-12-20T01:57:45;4.80;99.90
57026;DHT22;43961;52.940;6.834;2023-12-20T02:00:13;4.80;99.90
57026;DHT22;43961;52.940;6.834;2023-12-20T02:02:40;4.80;99.90
57026;DHT22;43961;52.940;6.834;2023-12-20T02:05:09;4.80;99.90
57026;DHT22;43961;52.940;6.834;2023-12-20T02:07:35;4.80;99.90
57026;DHT22;43961;52.940;6.834;2023-12-20T02:10:01;4.80;99.90
57026;DHT22;43961;52.940;6.834;2023-12-20T02:12:27;4.80;99.90
57026;DHT22;43961;52.940;6.834;2023-12-20T02:14:53;4.80;99.90
57026;DHT22;43961;52.940;6.834;2023-12-20T02:17:20;4.80;99.90
57026;DHT22;43961;52.940;6.834;2023-12-20T02:19:45;4.90;99.90
57026;DHT22;43961;52.940;6.834;2023-12-20T02:22:11;4.80;99.90
57026;DHT22;43961;52.940;6.834;2023-12-20T02:24:37;4.90;99.90
57026;DHT22;43961;52.940;6.834;2023-12-20T02:27:06;4.90;99.90
57026;DHT22;43961;52.940;6.834;2023-12-20T02:29:32;5.00;99.90
57026;DHT22;43961;52.940;6.834;2023-12-20T02:31:58;5.00;99.90
57026;DHT22;43961;52.940;6.834;2023-12-20T02:34:23;5.00;99.90
57026;DHT22;43961;52.940;6.834;2023-12-20T02:36:49;5.10;99.90
57026;DHT22;43961;52.940;6.834;2023-12-20T02:39:14;5.10;99.90
57026;DHT22;43961;52.940;6.834;2023-12-20T02:41:40;5.10;99.90
57026;DHT22;43961;52.940;6.834;2023-12-20T02:44:05;5.10;99.90
57026;DHT22;43961;52.940;6.834;2023-12-20T02:46:31;5.10;99.90
57026;DHT22;43961;52.940;6.834;2023-12-20T02:48:57;5.10;99.90
57026;DHT22;43961;52.940;6.834;2023-12-20T02:51:22;5.20;99.90
57026;DHT22;43961;52.940;6.834;2023-12-20T02:53:48;5.20;99.90
57026;DHT22;43961;52.940;6.834;2023-12-20T02:56:13;5.20;99.90
57026;DHT22;43961;52.940;6.834;2023-12-20T02:58:40;5.20;99.90
57026;DHT22;43961;52.940;6.834;2023-12-20T03:01:05;5.20;99.90
57026;DHT22;43961;52.940;6.834;2023-12-20T03:03:31;5.20;99.90
57026;DHT22;43961;52.940;6.834;2023-12-20T03:05:57;5.20;99.90
57026;DHT22;43961;52.940;6.834;2023-12-20T03:08:23;5.20;99.90
57026;DHT22;43961;52.940;6.834;2023-12-20T03:10:48;5.20;99.90
57026;DHT22;43961;52.940;6.834;2023-12-20T03:13:14;5.20;99.90
57026;DHT22;43961;52.940;6.834;2023-12-20T03:15:40;5.20;99.90
57026;DHT22;43961;52.940;6.834;2023-12-20T03:18:05;5.30;99.90
57026;DHT22;43961;52.940;6.834;2023-12-20T03:20:31;5.30;99.90
57026;DHT22;43961;52.940;6.834;2023-12-20T03:23:00;5.30;99.90
57026;DHT22;43961;52.940;6.834;2023-12-20T03:25:26;5.30;99.90
57026;DHT22;43961;52.940;6.834;2023-12-20T03:27:52;5.30;99.90
57026;DHT22;43961;52.940;6.834;2023-12-20T03:30:18;5.30;99.90
57026;DHT22;43961;52.940;6.834;2023-12-20T03:32:48;5.30;99.90
57026;DHT22;43961;52.940;6.834;2023-12-20T03:35:14;5.30;99.90
57026;DHT22;43961;52.940;6.834;2023-12-20T03:37:39;5.30;99.90
57026;DHT22;43961;52.940;6.834;2023-12-20T03:40:05;5.30;99.90
57026;DHT22;43961;52.940;6.834;2023-12-20T03:42:31;5.20;99.90
57026;DHT22;43961;52.940;6.834;2023-12-20T03:44:56;5.20;99.90
57026;DHT22;43961;52.940;6.834;2023-12-20T03:47:22;5.20;99.90
57026;DHT22;43961;52.940;6.834;2023-12-20T03:49:48;5.30;99.90
57026;DHT22;43961;52.940;6.834;2023-12-20T03:52:13;5.30;99.90
57026;DHT22;43961;52.940;6.834;2023-12-20T03:54:40;5.30;99.90
57026;DHT22;43961;52.940;6.834;2023-12-20T03:57:07;5.30;99.90
57026;DHT22;43961;52.940;6.834;2023-12-20T03:59:37;5.30;99.90
57026;DHT22;43961;52.940;6.834;2023-12-20T04:02:03;5.30;99.90
57026;DHT22;43961;52.940;6.834;2023-12-20T04:04:29;5.40;99.90
57026;DHT22;43961;52.940;6.834;2023-12-20T04:06:54;5.30;99.90
57026;DHT22;43961;52.940;6.834;2023-12-20T04:09:20;5.30;99.90
57026;DHT22;43961;52.940;6.834;2023-12-20T04:11:46;5.30;99.90
57026;DHT22;43961;52.940;6.834;2023-12-20T04:14:11;5.30;99.90
57026;DHT22;43961;52.940;6.834;2023-12-20T04:16:37;5.30;99.90
57026;DHT22;43961;52.940;6.834;2023-12-20T04:19:02;5.30;99.90
57026;DHT22;43961;52.940;6.834;2023-12-20T04:21:28;5.30;99.90
57026;DHT22;43961;52.940;6.834;2023-12-20T04:23:53;5.30;99.90
57026;DHT22;43961;52.940;6.834;2023-12-20T04:26:19;5.30;99.90
57026;DHT22;43961;52.940;6.834;2023-12-20T04:28:45;5.30;99.90
57026;DHT22;43961;52.940;6.834;2023-12-20T04:31:10;5.30;99.90
57026;DHT22;43961;52.940;6.834;2023-12-20T04:33:36;5.40;99.90
57026;DHT22;43961;52.940;6.834;2023-12-20T04:36:02;5.40;99.90
57026;DHT22;43961;52.940;6.834;2023-12-20T04:38:27;5.50;99.90
57026;DHT22;43961;52.940;6.834;2023-12-20T04:40:55;5.40;99.90
57026;DHT22;43961;52.940;6.834;2023-12-20T04:43:21;5.50;99.90
57026;DHT22;43961;52.940;6.834;2023-12-20T04:45:47;5.50;99.90
57026;DHT22;43961;52.940;6.834;2023-12-20T04:48:12;5.50;99.90
57026;DHT22;43961;52.940;6.834;2023-12-20T04:50:38;5.50;99.90
57026;DHT22;43961;52.940;6.834;2023-12-20T04:53:04;5.50;99.90
57026;DHT22;43961;52.940;6.834;2023-12-20T04:55:29;5.50;99.90
57026;DHT22;43961;52.940;6.834;2023-12-20T04:57:55;5.50;99.90
57026;DHT22;43961;52.940;6.834;2023-12-20T05:00:21;5.50;99.90
57026;DHT22;43961;52.940;6.834;2023-12-20T05:02:47;5.50;99.90
57026;DHT22;43961;52.940;6.834;2023-12-20T05:05:13;5.50;99.90
57026;DHT22;43961;52.940;6.834;2023-12-20T05:07:40;5.60;99.90
57026;DHT22;43961;52.940;6.834;2023-12-20T05:10:06;5.60;99.90
57026;DHT22;43961;52.940;6.834;2023-12-20T05:12:33;5.60;99.90
57026;DHT22;43961;52.940;6.834;2023-12-20T05:14:59;5.60;99.90
57026;DHT22;43961;52.940;6.834;2023-12-20T05:17:25;5.70;99.90
57026;DHT22;43961;52.940;6.834;2023-12-20T05:19:51;5.70;99.90
57026;DHT22;43961;52.940;6.834;2023-12-20T05:22:16;5.70;99.90
57026;DHT22;43961;52.940;6.834;2023-12-20T05:24:42;5.80;99.90
57026;DHT22;43961;52.940;6.834;2023-12-20T05:27:08;5.70;99.90
57026;DHT22;43961;52.940;6.834;2023-12-20T05:29:33;5.80;99.90
57026;DHT22;43961;52.940;6.834;2023-12-20T05:31:59;5.80;99.90
57026;DHT22;43961;52.940;6.834;2023-12-20T05:34:25;5.80;99.90
57026;DHT22;43961;52.940;6.834;2023-12-20T05:36:50;5.90;99.90
57026;DHT22;43961;52.940;6.834;2023-12-20T05:39:16;5.90;99.90
57026;DHT22;43961;52.940;6.834;2023-12-20T05:41:42;5.90;99.90
57026;DHT22;43961;52.940;6.834;2023-12-20T05:44:08;6.00;99.90
57026;DHT22;43961;52.940;6.834;2023-12-20T05:46:33;6.00;99.90
57026;DHT22;43961;52.940;6.834;2023-12-20T05:48:59;6.00;99.90
57026;DHT22;43961;52.940;6.834;2023-12-20T05:51:24;6.00;99.90
57026;DHT22;43961;52.940;6.834;2023-12-20T05:53:50;6.00;99.90
57026;DHT22;43961;52.940;6.834;2023-12-20T05:56:16;6.00;99.90
57026;DHT22;43961;52.940;6.834;2023-12-20T05:58:42;6.00;99.90
57026;DHT22;43961;52.940;6.834;2023-12-20T06:01:07;6.10;99.90
57026;DHT22;43961;52.940;6.834;2023-12-20T06:03:34;6.10;99.90
57026;DHT22;43961;52.940;6.834;2023-12-20T06:06:04;6.20;99.90
57026;DHT22;43961;52.940;6.834;2023-12-20T06:08:29;6.20;99.90
57026;DHT22;43961;52.940;6.834;2023-12-20T06:10:55;6.20;99.90
57026;DHT22;43961;52.940;6.834;2023-12-20T06:13:20;6.20;99.90
57026;DHT22;43961;52.940;6.834;2023-12-20T06:15:46;6.20;99.90
57026;DHT22;43961;52.940;6.834;2023-12-20T06:18:11;6.20;99.90
57026;DHT22;43961;52.940;6.834;2023-12-20T06:20:37;6.30;99.90
57026;DHT22;43961;52.940;6.834;2023-12-20T06:23:03;6.30;99.90
57026;DHT22;43961;52.940;6.834;2023-12-20T06:25:28;6.30;99.90
57026;DHT22;43961;52.940;6.834;2023-12-20T06:27:54;6.30;99.90
57026;DHT22;43961;52.940;6.834;2023-12-20T06:30:20;6.30;99.90
57026;DHT22;43961;52.940;6.834;2023-12-20T06:32:45;6.40;99.90
57026;DHT22;43961;52.940;6.834;2023-12-20T06:35:12;6.40;99.90
57026;DHT22;43961;52.940;6.834;2023-12-20T06:37:38;6.40;99.90
57026;DHT22;43961;52.940;6.834;2023-12-20T06:40:09;6.40;99.90
57026;DHT22;43961;52.940;6.834;2023-12-20T06:42:35;6.40;99.90
57026;DHT22;43961;52.940;6.834;2023-12-20T06:45:01;6.50;99.90
57026;DHT22;43961;52.940;6.834;2023-12-20T06:47:27;6.50;99.90
57026;DHT22;43961;52.940;6.834;2023-12-20T06:49:52;6.50;99.90
57026;DHT22;43961;52.940;6.834;2023-12-20T06:52:18;6.50;99.90
57026;DHT22;43961;52.940;6.834;2023-12-20T06:54:44;6.50;99.90
57026;DHT22;43961;52.940;6.834;2023-12-20T06:57:09;6.50;99.90
57026;DHT22;43961;52.940;6.834;2023-12-20T06:59:39;6.50;99.90
57026;DHT22;43961;52.940;6.834;2023-12-20T07:02:05;6.50;99.90
57026;DHT22;43961;52.940;6.834;2023-12-20T07:04:31;6.50;99.90
57026;DHT22;43961;52.940;6.834;2023-12-20T07:06:57;6.50;99.90
57026;DHT22;43961;52.940;6.834;2023-12-20T07:09:25;6.50;99.90
57026;DHT22;43961;52.940;6.834;2023-12-20T07:11:52;6.60;99.90
57026;DHT22;43961;52.940;6.834;2023-12-20T07:14:17;6.60;99.90
57026;DHT22;43961;52.940;6.834;2023-12-20T07:16:43;6.60;99.90
57026;DHT22;43961;52.940;6.834;2023-12-20T07:19:09;6.60;99.90
57026;DHT22;43961;52.940;6.834;2023-12-20T07:21:34;6.60;99.90
57026;DHT22;43961;52.940;6.834;2023-12-20T07:24:00;6.60;99.90
57026;DHT22;43961;52.940;6.834;2023-12-20T07:26:25;6.60;99.90
57026;DHT22;43961;52.940;6.834;2023-12-20T07:28:51;6.60;99.90
57026;DHT22;43961;52.940;6.834;2023-12-20T07:31:17;6.60;99.90
57026;DHT22;43961;52.940;6.834;2023-12-20T07:33:42;6.70;99.90
57026;DHT22;43961;52.940;6.834;2023-12-20T07:36:08;6.70;99.90
57026;DHT22;43961;52.940;6.834;2023-12-20T07:38:34;6.70;99.90
57026;DHT22;43961;52.940;6.834;2023-12-20T07:40:59;6.70;99.90
57026;DHT22;43961;52.940;6.834;2023-12-20T07:43:25;6.70;99.90
57026;DHT22;43961;52.940;6.834;2023-12-20T07:45:51;6.70;99.90
57026;DHT22;43961;52.940;6.834;2023-12-20T07:48:16;6.70;99.90
57026;DHT22;43961;52.940;6.834;2023-12-20T07:50:42;6.70;99.90
57026;DHT22;43961;52.940;6.834;2023-12-20T07:53:30;6.70;99.90
57026;DHT22;43961;52.940;6.834;2023-12-20T07:55:55;6.70;99.90
57026;DHT22;43961;52.940;6.834;2023-12-20T07:58:20;6.70;99.90
57026;DHT22;43961;52.940;6.834;2023-12-20T08:00:46;6.70;99.90
57026;DHT22;43961;52.940;6.834;2023-12-20T08:03:12;6.70;99.90
57026;DHT22;43961;52.940;6.834;2023-12-20T08:05:38;6.70;99.90
57026;DHT22;43961;52.940;6.834;2023-12-20T08:08:06;6.80;99.90
57026;DHT22;43961;52.940;6.834;2023-12-20T08:10:32;6.80;99.90
57026;DHT22;43961;52.940;6.834;2023-12-20T08:12:57;6.80;99.90
57026;DHT22;43961;52.940;6.834;2023-12-20T08:15:23;6.80;99.90
57026;DHT22;43961;52.940;6.834;2023-12-20T08:17:49;6.80;99.90
57026;DHT22;43961;52.940;6.834;2023-12-20T08:20:17;6.80;99.90
57026;DHT22;43961;52.940;6.834;2023-12-20T08:22:42;6.90;99.90
57026;DHT22;43961;52.940;6.834;2023-12-20T08:25:08;6.90;99.90
57026;DHT22;43961;52.940;6.834;2023-12-20T08:27:39;6.90;99.90
57026;DHT22;43961;52.940;6.834;2023-12-20T08:30:05;6.90;99.90
57026;DHT22;43961;52.940;6.834;2023-12-20T08:32:31;6.90;99.90
57026;DHT22;43961;52.940;6.834;2023-12-20T08:34:57;6.90;99.90
57026;DHT22;43961;52.940;6.834;2023-12-20T08:37:23;7.00;99.90
57026;DHT22;43961;52.940;6.834;2023-12-20T08:39:48;7.00;99.90
57026;DHT22;43961;52.940;6.834;2023-12-20T08:42:14;7.00;99.90
57026;DHT22;43961;52.940;6.834;2023-12-20T08:44:39;7.00;99.90
57026;DHT22;43961;52.940;6.834;2023-12-20T08:47:05;7.10;99.90
57026;DHT22;43961;52.940;6.834;2023-12-20T08:49:30;7.10;99.90
57026;DHT22;43961;52.940;6.834;2023-12-20T08:51:56;7.10;99.90
57026;DHT22;43961;52.940;6.834;2023-12-20T08:54:22;7.10;99.90
57026;DHT22;43961;52.940;6.834;2023-12-20T08:56:47;7.10;99.90
57026;DHT22;43961;52.940;6.834;2023-12-20T08:59:13;7.00;99.90
57026;DHT22;43961;52.940;6.834;2023-12-20T09:01:39;7.00;99.90
57026;DHT22;43961;52.940;6.834;2023-12-20T09:04:05;7.00;99.90
57026;DHT22;43961;52.940;6.834;2023-12-20T09:06:31;7.00;99.90
57026;DHT22;43961;52.940;6.834;2023-12-20T09:08:57;7.00;99.90
57026;DHT22;43961;52.940;6.834;2023-12-20T09:11:23;6.90;99.90
57026;DHT22;43961;52.940;6.834;2023-12-20T09:13:48;6.90;99.90
57026;DHT22;43961;52.940;6.834;2023-12-20T09:16:14;6.90;99.90
57026;DHT22;43961;52.940;6.834;2023-12-20T09:18:41;6.90;99.90
57026;DHT22;43961;52.940;6.834;2023-12-20T09:21:07;6.90;99.90
57026;DHT22;43961;52.940;6.834;2023-12-20T09:23:33;6.90;99.90
57026;DHT22;43961;52.940;6.834;2023-12-20T09:25:59;6.90;99.90
57026;DHT22;43961;52.940;6.834;2023-12-20T09:28:24;6.90;99.90
57026;DHT22;43961;52.940;6.834;2023-12-20T09:30:50;7.00;99.90
57026;DHT22;43961;52.940;6.834;2023-12-20T09:33:15;7.10;99.90
57026;DHT22;43961;52.940;6.834;2023-12-20T09:35:42;7.20;99.90
57026;DHT22;43961;52.940;6.834;2023-12-20T09:38:09;7.20;99.90
57026;DHT22;43961;52.940;6.834;2023-12-20T09:40:35;7.30;99.90
57026;DHT22;43961;52.940;6.834;2023-12-20T09:43:10;7.40;99.90
57026;DHT22;43961;52.940;6.834;2023-12-20T09:45:36;7.30;99.90
57026;DHT22;43961;52.940;6.834;2023-12-20T09:48:04;7.10;99.90
57026;DHT22;43961;52.940;6.834;2023-12-20T09:50:30;6.90;99.90
57026;DHT22;43961;52.940;6.834;2023-12-20T09:52:58;6.70;99.90
57026;DHT22;43961;52.940;6.834;2023-12-20T09:55:27;6.70;99.90
57026;DHT22;43961;52.940;6.834;2023-12-20T09:57:53;6.60;99.90
57026;DHT22;43961;52.940;6.834;2023-12-20T10:00:19;6.50;99.90
57026;DHT22;43961;52.940;6.834;2023-12-20T10:02:58;6.40;99.90
57026;DHT22;43961;52.940;6.834;2023-12-20T10:05:32;6.30;99.90
57026;DHT22;43961;52.940;6.834;2023-12-20T10:07:59;6.30;99.90
57026;DHT22;43961;52.940;6.834;2023-12-20T10:10:25;6.20;99.90
57026;DHT22;43961;52.940;6.834;2023-12-20T10:13:06;6.20;99.90
57026;DHT22;43961;52.940;6.834;2023-12-20T10:15:33;6.10;99.90
57026;DHT22;43961;52.940;6.834;2023-12-20T10:17:59;6.10;99.90
57026;DHT22;43961;52.940;6.834;2023-12-20T10:20:25;6.10;99.90
57026;DHT22;43961;52.940;6.834;2023-12-20T10:22:52;6.10;99.90
57026;DHT22;43961;52.940;6.834;2023-12-20T10:25:20;6.10;99.90
57026;DHT22;43961;52.940;6.834;2023-12-20T10:27:46;6.10;99.90
57026;DHT22;43961;52.940;6.834;2023-12-20T10:30:13;6.10;99.90
57026;DHT22;43961;52.940;6.834;2023-12-20T10:32:39;6.10;99.90
57026;DHT22;43961;52.940;6.834;2023-12-20T10:35:04;6.10;99.90
57026;DHT22;43961;52.940;6.834;2023-12-20T10:37:30;6.10;99.90
57026;DHT22;43961;52.940;6.834;2023-12-20T10:39:56;6.20;99.90
57026;DHT22;43961;52.940;6.834;2023-12-20T10:42:24;6.10;99.90
57026;DHT22;43961;52.940;6.834;2023-12-20T10:44:51;6.10;99.90
57026;DHT22;43961;52.940;6.834;2023-12-20T10:47:17;6.10;99.90
57026;DHT22;43961;52.940;6.834;2023-12-20T10:49:43;6.10;99.90
57026;DHT22;43961;52.940;6.834;2023-12-20T10:52:11;6.00;99.90
57026;DHT22;43961;52.940;6.834;2023-12-20T10:54:41;6.00;99.90
57026;DHT22;43961;52.940;6.834;2023-12-20T10:57:07;6.00;99.90
57026;DHT22;43961;52.940;6.834;2023-12-20T10:59:35;6.00;99.90
57026;DHT22;43961;52.940;6.834;2023-12-20T11:02:03;6.00;99.90
57026;DHT22;43961;52.940;6.834;2023-12-20T11:04:38;6.00;99.90
57026;DHT22;43961;52.940;6.834;2023-12-20T11:07:59;6.10;99.90
57026;DHT22;43961;52.940;6.834;2023-12-20T11:10:23;6.10;99.90
57026;DHT22;43961;52.940;6.834;2023-12-20T11:12:58;6.20;99.90
57026;DHT22;43961;52.940;6.834;2023-12-20T11:15:28;6.20;99.90
57026;DHT22;43961;52.940;6.834;2023-12-20T11:17:58;6.20;99.90
57026;DHT22;43961;52.940;6.834;2023-12-20T11:20:24;6.30;99.90
57026;DHT22;43961;52.940;6.834;2023-12-20T11:23:00;6.30;99.90
57026;DHT22;43961;52.940;6.834;2023-12-20T11:25:26;6.40;99.90
57026;DHT22;43961;52.940;6.834;2023-12-20T11:28:09;6.40;99.90
57026;DHT22;43961;52.940;6.834;2023-12-20T11:30:53;6.50;99.90
57026;DHT22;43961;52.940;6.834;2023-12-20T11:33:24;6.50;99.90
57026;DHT22;43961;52.940;6.834;2023-12-20T11:35:49;6.50;99.90
57026;DHT22;43961;52.940;6.834;2023-12-20T11:38:16;6.60;99.90
57026;DHT22;43961;52.940;6.834;2023-12-20T11:40:43;6.60;99.90
57026;DHT22;43961;52.940;6.834;2023-12-20T11:43:09;6.60;99.90
57026;DHT22;43961;52.940;6.834;2023-12-20T11:45:35;6.60;99.90
57026;DHT22;43961;52.940;6.834;2023-12-20T11:48:02;6.60;99.90
57026;DHT22;43961;52.940;6.834;2023-12-20T11:50:28;6.70;99.90
57026;DHT22;43961;52.940;6.834;2023-12-20T11:52:55;6.70;99.90
57026;DHT22;43961;52.940;6.834;2023-12-20T11:55:24;6.70;99.90
57026;DHT22;43961;52.940;6.834;2023-12-20T11:57:50;6.70;99.90
57026;DHT22;43961;52.940;6.834;2023-12-20T12:00:16;6.80;99.90
57026;DHT22;43961;52.940;6.834;2023-12-20T12:02:43;6.80;99.90
57026;DHT22;43961;52.940;6.834;2023-12-20T12:05:09;6.80;99.90
57026;DHT22;43961;52.940;6.834;2023-12-20T12:07:35;6.80;99.90
57026;DHT22;43961;52.940;6.834;2023-12-20T12:10:01;6.70;99.90
57026;DHT22;43961;52.940;6.834;2023-12-20T12:12:26;6.80;99.90
57026;DHT22;43961;52.940;6.834;2023-12-20T12:14:54;6.70;99.90
57026;DHT22;43961;52.940;6.834;2023-12-20T12:17:20;6.70;99.90
57026;DHT22;43961;52.940;6.834;2023-12-20T12:19:45;6.80;99.90
57026;DHT22;43961;52.940;6.834;2023-12-20T12:22:13;6.70;99.90
57026;DHT22;43961;52.940;6.834;2023-12-20T12:24:46;6.80;99.90
57026;DHT22;43961;52.940;6.834;2023-12-20T12:27:16;6.80;99.90
57026;DHT22;43961;52.940;6.834;2023-12-20T12:30:03;6.80;99.90
57026;DHT22;43961;52.940;6.834;2023-12-20T12:32:30;6.90;99.90
57026;DHT22;43961;52.940;6.834;2023-12-20T12:34:56;6.90;99.90
57026;DHT22;43961;52.940;6.834;2023-12-20T12:37:22;6.90;99.90
57026;DHT22;43961;52.940;6.834;2023-12-20T12:39:49;6.90;99.90
57026;DHT22;43961;52.940;6.834;2023-12-20T12:42:15;6.90;99.90
57026;DHT22;43961;52.940;6.834;2023-12-20T12:44:42;6.90;99.90
57026;DHT22;43961;52.940;6.834;2023-12-20T12:47:07;6.90;99.90
57026;DHT22;43961;52.940;6.834;2023-12-20T12:49:33;6.90;99.90
57026;DHT22;43961;52.940;6.834;2023-12-20T12:51:59;6.90;99.90
57026;DHT22;43961;52.940;6.834;2023-12-20T12:54:24;6.90;99.90
57026;DHT22;43961;52.940;6.834;2023-12-20T12:56:50;6.90;99.90
57026;DHT22;43961;52.940;6.834;2023-12-20T12:59:18;6.90;99.90
57026;DHT22;43961;52.940;6.834;2023-12-20T13:01:44;6.90;99.90
57026;DHT22;43961;52.940;6.834;2023-12-20T13:04:09;6.90;99.90
57026;DHT22;43961;52.940;6.834;2023-12-20T13:06:39;6.90;99.90
57026;DHT22;43961;52.940;6.834;2023-12-20T13:09:06;6.90;99.90
57026;DHT22;43961;52.940;6.834;2023-12-20T13:11:33;6.90;99.90
57026;DHT22;43961;52.940;6.834;2023-12-20T13:13:58;6.90;99.90
57026;DHT22;43961;52.940;6.834;2023-12-20T13:16:24;7.00;99.90
57026;DHT22;43961;52.940;6.834;2023-12-20T13:18:50;7.00;99.90
57026;DHT22;43961;52.940;6.834;2023-12-20T13:21:15;7.00;99.90
57026;DHT22;43961;52.940;6.834;2023-12-20T13:23:42;7.00;99.90
57026;DHT22;43961;52.940;6.834;2023-12-20T13:26:08;7.00;99.90
57026;DHT22;43961;52.940;6.834;2023-12-20T13:28:34;7.00;99.90
57026;DHT22;43961;52.940;6.834;2023-12-20T13:30:59;6.90;99.90
57026;DHT22;43961;52.940;6.834;2023-12-20T13:33:25;6.90;99.90
57026;DHT22;43961;52.940;6.834;2023-12-20T13:35:51;6.90;99.90
57026;DHT22;43961;52.940;6.834;2023-12-20T13:38:16;6.90;99.90
57026;DHT22;43961;52.940;6.834;2023-12-20T13:40:42;6.90;99.90
57026;DHT22;43961;52.940;6.834;2023-12-20T13:43:08;6.90;99.90
57026;DHT22;43961;52.940;6.834;2023-12-20T13:45:34;6.80;99.90
57026;DHT22;43961;52.940;6.834;2023-12-20T13:48:00;6.80;99.90
57026;DHT22;43961;52.940;6.834;2023-12-20T13:50:25;6.70;99.90
57026;DHT22;43961;52.940;6.834;2023-12-20T13:52:51;6.70;99.90
57026;DHT22;43961;52.940;6.834;2023-12-20T13:55:17;6.60;99.90
57026;DHT22;43961;52.940;6.834;2023-12-20T13:57:42;6.60;99.90
57026;DHT22;43961;52.940;6.834;2023-12-20T14:00:08;6.50;99.90
57026;DHT22;43961;52.940;6.834;2023-12-20T14:02:40;6.50;99.90
57026;DHT22;43961;52.940;6.834;2023-12-20T14:05:06;6.40;99.90
57026;DHT22;43961;52.940;6.834;2023-12-20T14:07:32;6.40;99.90
57026;DHT22;43961;52.940;6.834;2023-12-20T14:09:58;6.30;99.90
57026;DHT22;43961;52.940;6.834;2023-12-20T14:12:25;6.30;99.90
57026;DHT22;43961;52.940;6.834;2023-12-20T14:14:50;6.30;99.90
57026;DHT22;43961;52.940;6.834;2023-12-20T14:17:17;6.30;99.90
57026;DHT22;43961;52.940;6.834;2023-12-20T14:19:43;6.30;99.90
57026;DHT22;43961;52.940;6.834;2023-12-20T14:22:09;6.20;99.90
57026;DHT22;43961;52.940;6.834;2023-12-20T14:24:37;6.20;99.90
57026;DHT22;43961;52.940;6.834;2023-12-20T14:27:03;6.20;99.90
57026;DHT22;43961;52.940;6.834;2023-12-20T14:29:29;6.20;99.90
57026;DHT22;43961;52.940;6.834;2023-12-20T14:31:54;6.20;99.90
57026;DHT22;43961;52.940;6.834;2023-12-20T14:34:20;6.20;99.90
57026;DHT22;43961;52.940;6.834;2023-12-20T14:36:45;6.20;99.90
57026;DHT22;43961;52.940;6.834;2023-12-20T14:39:11;6.20;99.90
57026;DHT22;43961;52.940;6.834;2023-12-20T14:41:38;6.20;99.90
57026;DHT22;43961;52.940;6.834;2023-12-20T14:44:05;6.20;99.90
57026;DHT22;43961;52.940;6.834;2023-12-20T14:46:32;6.20;99.90
57026;DHT22;43961;52.940;6.834;2023-12-20T14:48:57;6.20;99.90
57026;DHT22;43961;52.940;6.834;2023-12-20T14:51:23;6.20;99.90
57026;DHT22;43961;52.940;6.834;2023-12-20T14:53:50;6.10;99.90
57026;DHT22;43961;52.940;6.834;2023-12-20T14:56:15;6.10;99.90
57026;DHT22;43961;52.940;6.834;2023-12-20T14:58:42;6.10;99.90
57026;DHT22;43961;52.940;6.834;2023-12-20T15:01:08;6.20;99.90
57026;DHT22;43961;52.940;6.834;2023-12-20T15:03:34;6.10;99.90
57026;DHT22;43961;52.940;6.834;2023-12-20T15:06:00;6.10;99.90
57026;DHT22;43961;52.940;6.834;2023-12-20T15:08:26;6.10;99.90
57026;DHT22;43961;52.940;6.834;2023-12-20T15:10:53;6.10;99.90
57026;DHT22;43961;52.940;6.834;2023-12-20T15:13:18;6.00;99.90
57026;DHT22;43961;52.940;6.834;2023-12-20T15:15:44;6.00;99.90
57026;DHT22;43961;52.940;6.834;2023-12-20T15:18:09;6.00;99.90
57026;DHT22;43961;52.940;6.834;2023-12-20T15:20:35;6.00;99.90
57026;DHT22;43961;52.940;6.834;2023-12-20T15:23:02;6.00;99.90
57026;DHT22;43961;52.940;6.834;2023-12-20T15:25:33;6.00;99.90
57026;DHT22;43961;52.940;6.834;2023-12-20T15:27:59;6.00;99.90
57026;DHT22;43961;52.940;6.834;2023-12-20T15:30:28;6.00;99.90
57026;DHT22;43961;52.940;6.834;2023-12-20T15:32:55;6.00;99.90
57026;DHT22;43961;52.940;6.834;2023-12-20T15:35:21;6.00;99.90
57026;DHT22;43961;52.940;6.834;2023-12-20T15:37:47;6.00;99.90
57026;DHT22;43961;52.940;6.834;2023-12-20T15:40:13;6.00;99.90